ANZ1983 YSSY-YMML
Flight info
| Callsign | ANZ1983 |
|---|---|
| Flight time | 1h 7m |
| Altitude | 34000 |
| Route | WOL2/34L WOL H65 LEECE Q29 ML DCT |
| Aircraft | A388/H-S/N |
Departure
| Time | 2026-05-04 09:44 |
|---|---|
| Airport | Sydney Kingsford Smith International Airport (YSSY) |
Arrival
| Time | 2026-05-04 10:51 |
|---|---|
| Airport | Melbourne Airport (YMML) |
| Time | Latitude | Longitude | Altitude | Speed | Heading |
|---|---|---|---|---|---|
| 2026-05-04 09:17 | -33.93913 | 151.16476 | 38 ft | 0 kts | 160° |
| 2026-05-04 09:23 | -33.93909 | 151.16474 | 38 ft | 2 kts | 160° |
| 2026-05-04 09:23 | -33.93902 | 151.16471 | 38 ft | 2 kts | 160° |
| 2026-05-04 09:23 | -33.93884 | 151.16464 | 38 ft | 3 kts | 160° |
| 2026-05-04 09:23 | -33.93865 | 151.16455 | 38 ft | 3 kts | 160° |
| 2026-05-04 09:25 | -33.93978 | 151.16342 | 38 ft | 0 kts | 178° |
| 2026-05-04 09:30 | -33.93980 | 151.16342 | 38 ft | 3 kts | 178° |
| 2026-05-04 09:30 | -33.94051 | 151.16334 | 38 ft | 18 kts | 187° |
| 2026-05-04 09:30 | -33.94177 | 151.16325 | 38 ft | 17 kts | 178° |
| 2026-05-04 09:31 | -33.94284 | 151.16347 | 38 ft | 12 kts | 162° |
| 2026-05-04 09:31 | -33.94345 | 151.16428 | 38 ft | 12 kts | 101° |
| 2026-05-04 09:31 | -33.94338 | 151.16501 | 38 ft | 13 kts | 75° |
| 2026-05-04 09:31 | -33.94311 | 151.16616 | 38 ft | 12 kts | 75° |
| 2026-05-04 09:32 | -33.94284 | 151.16734 | 38 ft | 20 kts | 74° |
| 2026-05-04 09:32 | -33.94234 | 151.16948 | 38 ft | 34 kts | 73° |
| 2026-05-04 09:34 | -33.94727 | 151.17484 | 38 ft | 0 kts | 105° |
| 2026-05-04 09:34 | -33.94743 | 151.17509 | 37 ft | 37 kts | 105° |
| 2026-05-04 09:34 | -33.94744 | 151.17514 | 38 ft | 0 kts | 90° |
| 2026-05-04 09:42 | -33.94693 | 151.17617 | 38 ft | 0 kts | 346° |
| 2026-05-04 09:43 | -33.94672 | 151.17611 | 38 ft | 20 kts | 346° |
| 2026-05-04 09:43 | -33.94246 | 151.17495 | 38 ft | 104 kts | 349° |
| 2026-05-04 09:43 | -33.93304 | 151.17261 | 165 ft | 164 kts | 353° |
| 2026-05-04 09:44 | -33.92121 | 151.16954 | 1092 ft | 172 kts | 351° |
| 2026-05-04 09:44 | -33.91015 | 151.16352 | 2151 ft | 186 kts | 336° |
| 2026-05-04 09:44 | -33.90055 | 151.15160 | 2697 ft | 212 kts | 314° |
| 2026-05-04 09:46 | -33.89746 | 151.02534 | 4887 ft | 266 kts | 224° |
| 2026-05-04 09:46 | -33.91076 | 151.00988 | 4866 ft | 268 kts | 235° |
| 2026-05-04 09:46 | -33.91961 | 150.99044 | 4871 ft | 265 kts | 252° |
| 2026-05-04 09:47 | -33.92296 | 150.96901 | 4871 ft | 259 kts | 270° |
| 2026-05-04 09:47 | -33.92146 | 150.95188 | 4872 ft | 255 kts | 284° |
| 2026-05-04 09:49 | -33.86134 | 150.82255 | 12003 ft | 265 kts | 296° |
| 2026-05-04 09:49 | -33.85745 | 150.80076 | 13040 ft | 272 kts | 279° |
| 2026-05-04 09:49 | -33.85937 | 150.77781 | 13994 ft | 285 kts | 263° |
| 2026-05-04 09:51 | -33.97140 | 150.69887 | 18286 ft | 413 kts | 179° |
| 2026-05-04 09:51 | -34.00046 | 150.70207 | 19030 ft | 426 kts | 175° |
| 2026-05-04 09:51 | -34.03015 | 150.70639 | 19866 ft | 435 kts | 175° |
| 2026-05-04 09:51 | -34.06037 | 150.71108 | 20675 ft | 444 kts | 174° |
| 2026-05-04 09:52 | -34.09117 | 150.71594 | 21453 ft | 452 kts | 174° |
| 2026-05-04 09:52 | -34.12253 | 150.72092 | 22199 ft | 459 kts | 174° |
| 2026-05-04 09:52 | -34.15438 | 150.72599 | 22921 ft | 466 kts | 175° |
| 2026-05-04 09:52 | -34.18670 | 150.73115 | 23668 ft | 472 kts | 174° |
| 2026-05-04 09:53 | -34.21935 | 150.73636 | 24354 ft | 478 kts | 174° |
| 2026-05-04 09:53 | -34.25247 | 150.74164 | 24998 ft | 484 kts | 174° |
| 2026-05-04 09:53 | -34.28601 | 150.74369 | 25647 ft | 486 kts | 184° |
| 2026-05-04 09:53 | -34.31959 | 150.73838 | 26040 ft | 490 kts | 196° |
| 2026-05-04 09:54 | -34.35187 | 150.72541 | 26458 ft | 491 kts | 208° |
| 2026-05-04 09:54 | -34.38148 | 150.70530 | 26920 ft | 489 kts | 220° |
| 2026-05-04 09:54 | -34.40820 | 150.68011 | 27512 ft | 487 kts | 226° |
| 2026-05-04 09:54 | -34.43369 | 150.65328 | 28188 ft | 486 kts | 228° |
| 2026-05-04 09:55 | -34.45894 | 150.62579 | 28651 ft | 492 kts | 229° |
| 2026-05-04 09:55 | -34.48433 | 150.59781 | 29085 ft | 497 kts | 229° |
| 2026-05-04 09:55 | -34.50990 | 150.56953 | 29524 ft | 502 kts | 229° |
| 2026-05-04 09:55 | -34.53575 | 150.54088 | 29949 ft | 507 kts | 229° |
| 2026-05-04 09:56 | -34.56182 | 150.51195 | 30357 ft | 511 kts | 230° |
| 2026-05-04 09:56 | -34.58787 | 150.48316 | 31105 ft | 504 kts | 231° |
| 2026-05-04 09:56 | -34.61355 | 150.45476 | 31751 ft | 501 kts | 231° |
| 2026-05-04 09:56 | -34.63931 | 150.42616 | 32127 ft | 503 kts | 231° |
| 2026-05-04 09:57 | -34.66512 | 150.39739 | 32443 ft | 506 kts | 230° |
| 2026-05-04 09:57 | -34.69103 | 150.36847 | 32711 ft | 509 kts | 230° |
| 2026-05-04 09:57 | -34.71711 | 150.33937 | 33003 ft | 510 kts | 230° |
| 2026-05-04 09:57 | -34.74320 | 150.31024 | 33310 ft | 511 kts | 230° |
| 2026-05-04 09:58 | -34.76927 | 150.28110 | 33618 ft | 512 kts | 230° |
| 2026-05-04 09:58 | -34.79549 | 150.25179 | 33908 ft | 513 kts | 230° |
| 2026-05-04 09:58 | -34.82163 | 150.22253 | 33977 ft | 510 kts | 231° |
| 2026-05-04 10:00 | -34.99070 | 150.03245 | 33999 ft | 507 kts | 230° |
| 2026-05-04 10:02 | -35.14433 | 149.81001 | 34012 ft | 495 kts | 243° |
| 2026-05-04 10:04 | -35.28379 | 149.56944 | 34018 ft | 506 kts | 242° |
| 2026-05-04 10:04 | -35.32489 | 149.49891 | 34017 ft | 511 kts | 242° |
| 2026-05-04 10:05 | -35.36616 | 149.42808 | 34018 ft | 513 kts | 242° |
| 2026-05-04 10:05 | -35.40750 | 149.35694 | 34017 ft | 513 kts | 240° |
| 2026-05-04 10:06 | -35.44859 | 149.28623 | 33999 ft | 509 kts | 242° |
| 2026-05-04 10:06 | -35.48944 | 149.21561 | 33998 ft | 509 kts | 242° |
| 2026-05-04 10:08 | -35.63239 | 148.96737 | 33987 ft | 510 kts | 243° |
| 2026-05-04 10:08 | -35.67310 | 148.89636 | 33987 ft | 509 kts | 243° |
| 2026-05-04 10:09 | -35.71373 | 148.82533 | 33986 ft | 509 kts | 243° |
| 2026-05-04 10:09 | -35.73387 | 148.79018 | 33824 ft | 493 kts | 243° |
| 2026-05-04 10:09 | -35.75324 | 148.75654 | 32771 ft | 478 kts | 244° |
| 2026-05-04 10:10 | -35.77241 | 148.72294 | 31671 ft | 480 kts | 244° |
| 2026-05-04 10:10 | -35.79147 | 148.68941 | 30694 ft | 477 kts | 244° |
| 2026-05-04 10:10 | -35.81035 | 148.65617 | 29989 ft | 472 kts | 244° |
| 2026-05-04 10:10 | -35.82910 | 148.62312 | 29972 ft | 472 kts | 244° |
| 2026-05-04 10:11 | -35.86663 | 148.55684 | 29983 ft | 473 kts | 244° |
| 2026-05-04 10:11 | -35.90414 | 148.49047 | 29983 ft | 473 kts | 244° |
| 2026-05-04 10:12 | -35.94151 | 148.42413 | 29985 ft | 472 kts | 244° |
| 2026-05-04 10:12 | -35.97878 | 148.35782 | 29985 ft | 471 kts | 244° |
| 2026-05-04 10:13 | -36.01600 | 148.29146 | 29985 ft | 471 kts | 244° |
| 2026-05-04 10:13 | -36.05316 | 148.22510 | 29984 ft | 471 kts | 244° |
| 2026-05-04 10:14 | -36.09023 | 148.15883 | 30009 ft | 467 kts | 245° |
| 2026-05-04 10:16 | -36.23662 | 147.89655 | 30013 ft | 464 kts | 245° |
| 2026-05-04 10:16 | -36.27321 | 147.83075 | 30000 ft | 466 kts | 245° |
| 2026-05-04 10:17 | -36.30985 | 147.76474 | 29999 ft | 466 kts | 245° |
| 2026-05-04 10:19 | -36.45588 | 147.49985 | 30001 ft | 466 kts | 246° |
| 2026-05-04 10:19 | -36.49225 | 147.43351 | 30001 ft | 466 kts | 246° |
| 2026-05-04 10:20 | -36.52873 | 147.36680 | 30003 ft | 471 kts | 246° |
| 2026-05-04 10:20 | -36.56538 | 147.29964 | 30001 ft | 470 kts | 244° |
| 2026-05-04 10:21 | -36.60209 | 147.23242 | 30004 ft | 469 kts | 246° |
| 2026-05-04 10:21 | -36.63857 | 147.16542 | 30004 ft | 468 kts | 246° |
| 2026-05-04 10:22 | -36.69311 | 147.06489 | 30004 ft | 468 kts | 246° |
| 2026-05-04 10:23 | -36.72939 | 146.99786 | 30002 ft | 467 kts | 246° |
| 2026-05-04 10:25 | -36.87326 | 146.73077 | 29986 ft | 464 kts | 246° |
| 2026-05-04 10:25 | -36.90914 | 146.66376 | 29975 ft | 467 kts | 246° |
| 2026-05-04 10:26 | -36.94528 | 146.59616 | 29973 ft | 469 kts | 246° |
| 2026-05-04 10:26 | -36.98144 | 146.52847 | 29973 ft | 470 kts | 246° |
| 2026-05-04 10:27 | -37.01762 | 146.46059 | 29974 ft | 470 kts | 246° |
| 2026-05-04 10:27 | -37.05370 | 146.39278 | 29978 ft | 470 kts | 246° |
| 2026-05-04 10:28 | -37.08987 | 146.32457 | 29990 ft | 472 kts | 245° |
| 2026-05-04 10:28 | -37.12611 | 146.25613 | 29990 ft | 473 kts | 246° |
| 2026-05-04 10:29 | -37.16228 | 146.18772 | 29990 ft | 473 kts | 246° |
| 2026-05-04 10:29 | -37.19844 | 146.11917 | 29989 ft | 472 kts | 246° |
| 2026-05-04 10:30 | -37.23461 | 146.05043 | 29947 ft | 471 kts | 245° |
| 2026-05-04 10:30 | -37.27053 | 145.98212 | 29945 ft | 470 kts | 246° |
| 2026-05-04 10:31 | -37.30634 | 145.91379 | 29945 ft | 469 kts | 246° |
| 2026-05-04 10:32 | -37.42704 | 145.68453 | 29420 ft | 392 kts | 248° |
| 2026-05-04 10:33 | -37.44150 | 145.65617 | 28481 ft | 378 kts | 251° |
| 2026-05-04 10:33 | -37.45149 | 145.62646 | 27176 ft | 364 kts | 264° |
| 2026-05-04 10:33 | -37.45507 | 145.59583 | 25995 ft | 348 kts | 276° |
| 2026-05-04 10:33 | -37.45453 | 145.56614 | 25168 ft | 333 kts | 281° |
| 2026-05-04 10:34 | -37.45331 | 145.53749 | 24642 ft | 322 kts | 281° |
| 2026-05-04 10:34 | -37.45219 | 145.50962 | 24190 ft | 317 kts | 281° |
| 2026-05-04 10:34 | -37.45124 | 145.48228 | 23749 ft | 311 kts | 280° |
| 2026-05-04 10:34 | -37.45042 | 145.45523 | 23247 ft | 308 kts | 280° |
| 2026-05-04 10:35 | -37.44970 | 145.42839 | 22710 ft | 307 kts | 279° |
| 2026-05-04 10:35 | -37.44906 | 145.40164 | 22148 ft | 306 kts | 278° |
| 2026-05-04 10:35 | -37.44850 | 145.37503 | 21610 ft | 305 kts | 278° |
| 2026-05-04 10:35 | -37.44800 | 145.34846 | 21077 ft | 303 kts | 277° |
| 2026-05-04 10:36 | -37.44753 | 145.32207 | 20547 ft | 302 kts | 277° |
| 2026-05-04 10:36 | -37.44709 | 145.29587 | 20021 ft | 300 kts | 277° |
| 2026-05-04 10:36 | -37.44667 | 145.26970 | 19495 ft | 299 kts | 276° |
| 2026-05-04 10:36 | -37.44626 | 145.24359 | 18973 ft | 298 kts | 276° |
| 2026-05-04 10:37 | -37.44586 | 145.21764 | 18449 ft | 296 kts | 276° |
| 2026-05-04 10:37 | -37.44547 | 145.19196 | 17933 ft | 295 kts | 275° |
| 2026-05-04 10:37 | -37.44509 | 145.16617 | 17422 ft | 293 kts | 275° |
| 2026-05-04 10:37 | -37.44684 | 145.14069 | 16965 ft | 296 kts | 263° |
| 2026-05-04 10:39 | -37.54985 | 145.07195 | 14147 ft | 323 kts | 180° |
| 2026-05-04 10:39 | -37.57227 | 145.07414 | 13625 ft | 324 kts | 176° |
| 2026-05-04 10:39 | -37.59463 | 145.07621 | 13041 ft | 326 kts | 172° |
| 2026-05-04 10:40 | -37.61729 | 145.07862 | 12497 ft | 326 kts | 173° |
| 2026-05-04 10:40 | -37.63974 | 145.08107 | 11595 ft | 326 kts | 173° |
| 2026-05-04 10:40 | -37.66238 | 145.08358 | 10598 ft | 329 kts | 174° |
| 2026-05-04 10:40 | -37.68525 | 145.08613 | 9599 ft | 332 kts | 175° |
| 2026-05-04 10:41 | -37.70824 | 145.08875 | 8635 ft | 332 kts | 175° |
| 2026-05-04 10:41 | -37.73060 | 145.09146 | 8249 ft | 313 kts | 175° |
| 2026-05-04 10:41 | -37.75162 | 145.09409 | 7727 ft | 301 kts | 175° |
| 2026-05-04 10:41 | -37.77234 | 145.09678 | 7038 ft | 297 kts | 175° |
| 2026-05-04 10:42 | -37.79278 | 145.09956 | 6345 ft | 295 kts | 176° |
| 2026-05-04 10:42 | -37.81280 | 145.09917 | 5850 ft | 280 kts | 192° |
| 2026-05-04 10:42 | -37.83019 | 145.09203 | 5516 ft | 251 kts | 208° |
| 2026-05-04 10:42 | -37.84407 | 145.07970 | 4698 ft | 241 kts | 229° |
| 2026-05-04 10:43 | -37.85347 | 145.06304 | 3907 ft | 227 kts | 249° |
| 2026-05-04 10:44 | -37.84627 | 144.95471 | 2919 ft | 166 kts | 288° |
| 2026-05-04 10:45 | -37.84427 | 144.94032 | 2918 ft | 166 kts | 288° |
| 2026-05-04 10:45 | -37.84221 | 144.92599 | 2916 ft | 165 kts | 289° |
| 2026-05-04 10:45 | -37.83723 | 144.91395 | 2912 ft | 146 kts | 310° |
| 2026-05-04 10:45 | -37.82949 | 144.90654 | 2936 ft | 136 kts | 324° |
| 2026-05-04 10:46 | -37.82272 | 144.89843 | 2921 ft | 132 kts | 319° |
| 2026-05-04 10:46 | -37.81524 | 144.89189 | 2909 ft | 131 kts | 330° |
| 2026-05-04 10:46 | -37.80707 | 144.88689 | 2914 ft | 131 kts | 334° |
| 2026-05-04 10:46 | -37.79892 | 144.88195 | 2916 ft | 129 kts | 334° |
| 2026-05-04 10:47 | -37.79096 | 144.87712 | 2733 ft | 126 kts | 334° |
| 2026-05-04 10:47 | -37.78302 | 144.87230 | 2417 ft | 126 kts | 334° |
| 2026-05-04 10:47 | -37.77509 | 144.86749 | 2423 ft | 128 kts | 334° |
| 2026-05-04 10:47 | -37.76709 | 144.86264 | 2422 ft | 128 kts | 334° |
| 2026-05-04 10:49 | -37.70491 | 144.84511 | 707 ft | 137 kts | 348° |
| 2026-05-04 10:49 | -37.69550 | 144.84331 | 597 ft | 138 kts | 349° |
| 2026-05-04 10:50 | -37.68600 | 144.84140 | 488 ft | 137 kts | 349° |
| 2026-05-04 10:51 | -37.66836 | 144.83920 | 451 ft | 15 kts | 17° |
| 2026-05-04 10:52 | -37.66756 | 144.83982 | 451 ft | 12 kts | 50° |
| 2026-05-04 10:52 | -37.66733 | 144.84031 | 451 ft | 6 kts | 69° |
| 2026-05-04 10:52 | -37.66706 | 144.84149 | 451 ft | 20 kts | 56° |
| 2026-05-04 10:54 | -37.66734 | 144.84750 | 451 ft | 5 kts | 243° |